sensor_id;sensor_type;location;lat;lon;timestamp;P1;durP1;ratioP1;P2;durP2;ratioP2
3217;SDS011;1621;49.702;8.618;2023-03-13T00:01:23;12.10;;;4.60;;
3217;SDS011;1621;49.702;8.618;2023-03-13T00:03:50;10.80;;;4.20;;
3217;SDS011;1621;49.702;8.618;2023-03-13T00:06:18;17.73;;;4.90;;
3217;SDS011;1621;49.702;8.618;2023-03-13T00:08:44;14.13;;;4.57;;
3217;SDS011;1621;49.702;8.618;2023-03-13T00:11:12;11.17;;;3.77;;
3217;SDS011;1621;49.702;8.618;2023-03-13T00:13:39;11.90;;;4.40;;
3217;SDS011;1621;49.702;8.618;2023-03-13T00:16:06;11.30;;;4.37;;
3217;SDS011;1621;49.702;8.618;2023-03-13T00:18:33;11.00;;;4.07;;
3217;SDS011;1621;49.702;8.618;2023-03-13T00:20:59;10.93;;;3.80;;
3217;SDS011;1621;49.702;8.618;2023-03-13T00:23:27;8.77;;;3.50;;
3217;SDS011;1621;49.702;8.618;2023-03-13T00:25:57;13.03;;;4.23;;
3217;SDS011;1621;49.702;8.618;2023-03-13T00:28:24;12.50;;;4.33;;
3217;SDS011;1621;49.702;8.618;2023-03-13T00:30:50;12.73;;;4.27;;
3217;SDS011;1621;49.702;8.618;2023-03-13T00:33:16;12.00;;;4.40;;
3217;SDS011;1621;49.702;8.618;2023-03-13T00:35:42;8.73;;;3.70;;
3217;SDS011;1621;49.702;8.618;2023-03-13T00:38:09;11.43;;;3.90;;
3217;SDS011;1621;49.702;8.618;2023-03-13T00:40:36;13.87;;;4.43;;
3217;SDS011;1621;49.702;8.618;2023-03-13T00:43:03;13.90;;;4.40;;
3217;SDS011;1621;49.702;8.618;2023-03-13T00:45:29;12.03;;;3.77;;
3217;SDS011;1621;49.702;8.618;2023-03-13T00:47:55;16.50;;;4.40;;
3217;SDS011;1621;49.702;8.618;2023-03-13T00:50:21;18.50;;;4.47;;
3217;SDS011;1621;49.702;8.618;2023-03-13T00:52:48;15.30;;;4.83;;
3217;SDS011;1621;49.702;8.618;2023-03-13T00:55:14;12.53;;;4.10;;
3217;SDS011;1621;49.702;8.618;2023-03-13T00:57:42;9.77;;;3.73;;
3217;SDS011;1621;49.702;8.618;2023-03-13T01:00:09;10.80;;;3.73;;
3217;SDS011;1621;49.702;8.618;2023-03-13T01:02:39;13.33;;;3.70;;
3217;SDS011;1621;49.702;8.618;2023-03-13T01:05:06;10.87;;;4.10;;
3217;SDS011;1621;49.702;8.618;2023-03-13T01:07:33;12.43;;;4.17;;
3217;SDS011;1621;49.702;8.618;2023-03-13T01:10:00;11.00;;;4.30;;
3217;SDS011;1621;49.702;8.618;2023-03-13T01:12:26;12.07;;;3.50;;
3217;SDS011;1621;49.702;8.618;2023-03-13T01:14:54;9.60;;;4.10;;
3217;SDS011;1621;49.702;8.618;2023-03-13T01:17:20;13.10;;;4.50;;
3217;SDS011;1621;49.702;8.618;2023-03-13T01:19:46;12.07;;;3.40;;
3217;SDS011;1621;49.702;8.618;2023-03-13T01:22:13;15.17;;;4.03;;
3217;SDS011;1621;49.702;8.618;2023-03-13T01:24:40;12.67;;;4.10;;
3217;SDS011;1621;49.702;8.618;2023-03-13T01:27:06;15.07;;;4.80;;
3217;SDS011;1621;49.702;8.618;2023-03-13T01:29:32;10.90;;;4.67;;
3217;SDS011;1621;49.702;8.618;2023-03-13T01:32:00;10.87;;;3.77;;
3217;SDS011;1621;49.702;8.618;2023-03-13T01:34:26;12.53;;;4.10;;
3217;SDS011;1621;49.702;8.618;2023-03-13T01:36:52;16.53;;;5.00;;
3217;SDS011;1621;49.702;8.618;2023-03-13T01:39:18;9.03;;;3.30;;
3217;SDS011;1621;49.702;8.618;2023-03-13T01:41:45;13.23;;;4.10;;
3217;SDS011;1621;49.702;8.618;2023-03-13T01:44:17;12.17;;;3.40;;
3217;SDS011;1621;49.702;8.618;2023-03-13T01:46:44;10.60;;;3.63;;
3217;SDS011;1621;49.702;8.618;2023-03-13T01:49:13;10.10;;;3.90;;
3217;SDS011;1621;49.702;8.618;2023-03-13T01:51:41;8.37;;;4.03;;
3217;SDS011;1621;49.702;8.618;2023-03-13T01:54:08;12.57;;;4.00;;
3217;SDS011;1621;49.702;8.618;2023-03-13T01:56:37;10.67;;;3.50;;
3217;SDS011;1621;49.702;8.618;2023-03-13T01:59:05;10.30;;;2.93;;
3217;SDS011;1621;49.702;8.618;2023-03-13T02:01:33;14.70;;;4.07;;
3217;SDS011;1621;49.702;8.618;2023-03-13T02:03:59;9.80;;;3.73;;
3217;SDS011;1621;49.702;8.618;2023-03-13T02:06:28;10.10;;;3.10;;
3217;SDS011;1621;49.702;8.618;2023-03-13T02:08:56;13.07;;;3.60;;
3217;SDS011;1621;49.702;8.618;2023-03-13T02:11:25;10.00;;;3.47;;
3217;SDS011;1621;49.702;8.618;2023-03-13T02:13:53;12.37;;;3.83;;
3217;SDS011;1621;49.702;8.618;2023-03-13T02:16:20;13.70;;;3.97;;
3217;SDS011;1621;49.702;8.618;2023-03-13T02:18:47;11.33;;;5.03;;
3217;SDS011;1621;49.702;8.618;2023-03-13T02:21:15;10.70;;;4.57;;
3217;SDS011;1621;49.702;8.618;2023-03-13T02:23:47;11.93;;;3.77;;
3217;SDS011;1621;49.702;8.618;2023-03-13T02:26:17;10.33;;;3.50;;
3217;SDS011;1621;49.702;8.618;2023-03-13T02:28:43;13.60;;;3.37;;
3217;SDS011;1621;49.702;8.618;2023-03-13T02:31:09;17.03;;;4.30;;
3217;SDS011;1621;49.702;8.618;2023-03-13T02:33:37;11.50;;;3.13;;
3217;SDS011;1621;49.702;8.618;2023-03-13T02:36:05;9.00;;;3.20;;
3217;SDS011;1621;49.702;8.618;2023-03-13T02:38:33;13.73;;;4.13;;
3217;SDS011;1621;49.702;8.618;2023-03-13T02:41:00;8.40;;;3.73;;
3217;SDS011;1621;49.702;8.618;2023-03-13T02:43:30;8.27;;;3.80;;
3217;SDS011;1621;49.702;8.618;2023-03-13T02:46:01;6.67;;;3.23;;
3217;SDS011;1621;49.702;8.618;2023-03-13T02:48:29;9.63;;;3.70;;
3217;SDS011;1621;49.702;8.618;2023-03-13T02:50:56;7.73;;;2.93;;
3217;SDS011;1621;49.702;8.618;2023-03-13T02:53:22;9.73;;;3.87;;
3217;SDS011;1621;49.702;8.618;2023-03-13T02:55:49;10.23;;;3.60;;
3217;SDS011;1621;49.702;8.618;2023-03-13T02:58:15;16.50;;;3.40;;
3217;SDS011;1621;49.702;8.618;2023-03-13T03:00:42;6.00;;;3.23;;
3217;SDS011;1621;49.702;8.618;2023-03-13T03:03:09;9.07;;;3.40;;
3217;SDS011;1621;49.702;8.618;2023-03-13T03:05:36;13.97;;;4.20;;
3217;SDS011;1621;49.702;8.618;2023-03-13T03:08:02;8.60;;;4.10;;
3217;SDS011;1621;49.702;8.618;2023-03-13T03:10:28;9.83;;;3.80;;
3217;SDS011;1621;49.702;8.618;2023-03-13T03:12:54;9.80;;;3.23;;
3217;SDS011;1621;49.702;8.618;2023-03-13T03:15:21;9.17;;;3.90;;
3217;SDS011;1621;49.702;8.618;2023-03-13T03:17:48;9.20;;;3.67;;
3217;SDS011;1621;49.702;8.618;2023-03-13T03:20:15;9.57;;;3.40;;
3217;SDS011;1621;49.702;8.618;2023-03-13T03:22:41;10.30;;;3.40;;
3217;SDS011;1621;49.702;8.618;2023-03-13T03:25:08;14.90;;;3.57;;
3217;SDS011;1621;49.702;8.618;2023-03-13T03:27:34;8.90;;;3.10;;
3217;SDS011;1621;49.702;8.618;2023-03-13T03:30:01;11.47;;;3.03;;
3217;SDS011;1621;49.702;8.618;2023-03-13T03:32:28;9.37;;;3.40;;
3217;SDS011;1621;49.702;8.618;2023-03-13T03:34:56;7.70;;;3.20;;
3217;SDS011;1621;49.702;8.618;2023-03-13T03:37:22;8.60;;;2.73;;
3217;SDS011;1621;49.702;8.618;2023-03-13T03:39:48;8.17;;;3.03;;
3217;SDS011;1621;49.702;8.618;2023-03-13T03:42:14;10.80;;;3.60;;
3217;SDS011;1621;49.702;8.618;2023-03-13T03:44:40;7.03;;;2.70;;
3217;SDS011;1621;49.702;8.618;2023-03-13T03:47:07;6.70;;;3.13;;
3217;SDS011;1621;49.702;8.618;2023-03-13T03:49:33;6.57;;;2.70;;
3217;SDS011;1621;49.702;8.618;2023-03-13T03:52:01;14.13;;;2.60;;
3217;SDS011;1621;49.702;8.618;2023-03-13T03:54:27;10.33;;;3.33;;
3217;SDS011;1621;49.702;8.618;2023-03-13T03:56:53;14.07;;;2.70;;
3217;SDS011;1621;49.702;8.618;2023-03-13T03:59:20;16.30;;;3.33;;
3217;SDS011;1621;49.702;8.618;2023-03-13T04:01:46;6.97;;;2.50;;
3217;SDS011;1621;49.702;8.618;2023-03-13T04:04:12;10.13;;;3.33;;
3217;SDS011;1621;49.702;8.618;2023-03-13T04:06:38;6.03;;;2.43;;
3217;SDS011;1621;49.702;8.618;2023-03-13T04:09:06;8.23;;;2.83;;
3217;SDS011;1621;49.702;8.618;2023-03-13T04:11:32;8.17;;;3.27;;
3217;SDS011;1621;49.702;8.618;2023-03-13T04:13:58;12.80;;;2.50;;
3217;SDS011;1621;49.702;8.618;2023-03-13T04:16:25;7.20;;;2.73;;
3217;SDS011;1621;49.702;8.618;2023-03-13T04:18:51;6.47;;;2.90;;
3217;SDS011;1621;49.702;8.618;2023-03-13T04:21:17;7.40;;;2.60;;
3217;SDS011;1621;49.702;8.618;2023-03-13T04:23:43;7.47;;;3.03;;
3217;SDS011;1621;49.702;8.618;2023-03-13T04:26:11;9.57;;;2.57;;
3217;SDS011;1621;49.702;8.618;2023-03-13T04:28:37;9.73;;;2.93;;
3217;SDS011;1621;49.702;8.618;2023-03-13T04:31:04;11.30;;;2.80;;
3217;SDS011;1621;49.702;8.618;2023-03-13T04:33:30;11.07;;;3.30;;
3217;SDS011;1621;49.702;8.618;2023-03-13T04:35:56;7.47;;;2.57;;
3217;SDS011;1621;49.702;8.618;2023-03-13T04:38:22;8.07;;;2.80;;
3217;SDS011;1621;49.702;8.618;2023-03-13T04:40:49;6.90;;;2.20;;
3217;SDS011;1621;49.702;8.618;2023-03-13T04:43:16;6.00;;;2.37;;
3217;SDS011;1621;49.702;8.618;2023-03-13T04:45:42;5.60;;;2.30;;
3217;SDS011;1621;49.702;8.618;2023-03-13T04:48:09;8.23;;;2.30;;
3217;SDS011;1621;49.702;8.618;2023-03-13T04:50:35;5.80;;;2.40;;
3217;SDS011;1621;49.702;8.618;2023-03-13T04:53:01;5.93;;;2.50;;
3217;SDS011;1621;49.702;8.618;2023-03-13T04:55:27;8.90;;;2.43;;
3217;SDS011;1621;49.702;8.618;2023-03-13T04:57:54;6.27;;;2.57;;
3217;SDS011;1621;49.702;8.618;2023-03-13T05:00:21;9.07;;;2.20;;
3217;SDS011;1621;49.702;8.618;2023-03-13T05:02:48;11.17;;;2.87;;
3217;SDS011;1621;49.702;8.618;2023-03-13T05:05:14;5.30;;;1.87;;
3217;SDS011;1621;49.702;8.618;2023-03-13T05:07:40;4.53;;;2.23;;
3217;SDS011;1621;49.702;8.618;2023-03-13T05:10:07;7.03;;;2.87;;
3217;SDS011;1621;49.702;8.618;2023-03-13T05:12:33;8.00;;;2.60;;
3217;SDS011;1621;49.702;8.618;2023-03-13T05:14:59;5.70;;;2.40;;
3217;SDS011;1621;49.702;8.618;2023-03-13T05:17:27;4.83;;;2.80;;
3217;SDS011;1621;49.702;8.618;2023-03-13T05:19:53;9.43;;;3.10;;
3217;SDS011;1621;49.702;8.618;2023-03-13T05:22:19;4.97;;;2.40;;
3217;SDS011;1621;49.702;8.618;2023-03-13T05:24:46;5.57;;;2.67;;
3217;SDS011;1621;49.702;8.618;2023-03-13T05:27:12;5.20;;;2.90;;
3217;SDS011;1621;49.702;8.618;2023-03-13T05:29:38;5.30;;;3.03;;
3217;SDS011;1621;49.702;8.618;2023-03-13T05:32:05;7.63;;;2.93;;
3217;SDS011;1621;49.702;8.618;2023-03-13T05:34:32;10.63;;;3.07;;
3217;SDS011;1621;49.702;8.618;2023-03-13T05:36:59;4.73;;;2.50;;
3217;SDS011;1621;49.702;8.618;2023-03-13T05:39:25;5.87;;;2.57;;
3217;SDS011;1621;49.702;8.618;2023-03-13T05:41:51;9.23;;;3.37;;
3217;SDS011;1621;49.702;8.618;2023-03-13T05:44:17;4.97;;;2.43;;
3217;SDS011;1621;49.702;8.618;2023-03-13T05:46:44;5.27;;;2.53;;
3217;SDS011;1621;49.702;8.618;2023-03-13T05:49:10;4.43;;;2.50;;
3217;SDS011;1621;49.702;8.618;2023-03-13T05:51:37;6.37;;;2.37;;
3217;SDS011;1621;49.702;8.618;2023-03-13T05:54:04;6.63;;;2.80;;
3217;SDS011;1621;49.702;8.618;2023-03-13T05:56:30;5.07;;;2.90;;
3217;SDS011;1621;49.702;8.618;2023-03-13T05:58:56;8.10;;;3.10;;
3217;SDS011;1621;49.702;8.618;2023-03-13T06:01:22;5.67;;;2.60;;
3217;SDS011;1621;49.702;8.618;2023-03-13T06:03:49;7.27;;;2.27;;
3217;SDS011;1621;49.702;8.618;2023-03-13T06:06:15;8.80;;;2.83;;
3217;SDS011;1621;49.702;8.618;2023-03-13T06:08:43;6.27;;;2.50;;
3217;SDS011;1621;49.702;8.618;2023-03-13T06:11:09;4.73;;;2.50;;
3217;SDS011;1621;49.702;8.618;2023-03-13T06:13:35;6.40;;;2.67;;
3217;SDS011;1621;49.702;8.618;2023-03-13T06:16:01;5.67;;;3.37;;
3217;SDS011;1621;49.702;8.618;2023-03-13T06:18:28;9.00;;;2.77;;
3217;SDS011;1621;49.702;8.618;2023-03-13T06:20:55;6.00;;;2.87;;
3217;SDS011;1621;49.702;8.618;2023-03-13T06:23:22;6.30;;;2.70;;
3217;SDS011;1621;49.702;8.618;2023-03-13T06:25:49;8.00;;;3.63;;
3217;SDS011;1621;49.702;8.618;2023-03-13T06:28:16;4.97;;;3.07;;
3217;SDS011;1621;49.702;8.618;2023-03-13T06:30:42;5.70;;;2.93;;
3217;SDS011;1621;49.702;8.618;2023-03-13T06:33:08;6.37;;;3.47;;
3217;SDS011;1621;49.702;8.618;2023-03-13T06:35:34;5.17;;;2.83;;
3217;SDS011;1621;49.702;8.618;2023-03-13T06:38:01;6.00;;;2.90;;
3217;SDS011;1621;49.702;8.618;2023-03-13T06:40:27;6.50;;;2.97;;
3217;SDS011;1621;49.702;8.618;2023-03-13T06:42:54;3.70;;;2.10;;
3217;SDS011;1621;49.702;8.618;2023-03-13T06:45:21;6.10;;;2.60;;
3217;SDS011;1621;49.702;8.618;2023-03-13T06:47:47;4.00;;;2.67;;
3217;SDS011;1621;49.702;8.618;2023-03-13T06:50:15;3.43;;;1.80;;
3217;SDS011;1621;49.702;8.618;2023-03-13T06:52:42;4.93;;;2.30;;
3217;SDS011;1621;49.702;8.618;2023-03-13T06:55:08;3.20;;;2.00;;
3217;SDS011;1621;49.702;8.618;2023-03-13T06:57:35;5.50;;;2.50;;
3217;SDS011;1621;49.702;8.618;2023-03-13T07:00:02;3.27;;;2.20;;
3217;SDS011;1621;49.702;8.618;2023-03-13T07:02:30;5.83;;;2.30;;
3217;SDS011;1621;49.702;8.618;2023-03-13T07:04:56;4.30;;;2.40;;
3217;SDS011;1621;49.702;8.618;2023-03-13T07:07:22;5.50;;;2.43;;
3217;SDS011;1621;49.702;8.618;2023-03-13T07:09:49;9.07;;;2.20;;
3217;SDS011;1621;49.702;8.618;2023-03-13T07:12:15;5.17;;;2.70;;
3217;SDS011;1621;49.702;8.618;2023-03-13T07:14:42;5.60;;;2.47;;
3217;SDS011;1621;49.702;8.618;2023-03-13T07:17:11;5.53;;;2.37;;
3217;SDS011;1621;49.702;8.618;2023-03-13T07:19:37;5.23;;;2.33;;
3217;SDS011;1621;49.702;8.618;2023-03-13T07:22:03;3.77;;;2.30;;
3217;SDS011;1621;49.702;8.618;2023-03-13T07:24:30;2.93;;;2.00;;
3217;SDS011;1621;49.702;8.618;2023-03-13T07:26:56;6.60;;;2.50;;
3217;SDS011;1621;49.702;8.618;2023-03-13T07:29:22;4.53;;;1.93;;
3217;SDS011;1621;49.702;8.618;2023-03-13T07:31:49;4.00;;;2.30;;
3217;SDS011;1621;49.702;8.618;2023-03-13T07:34:16;5.20;;;2.60;;
3217;SDS011;1621;49.702;8.618;2023-03-13T07:36:43;3.50;;;1.83;;
3217;SDS011;1621;49.702;8.618;2023-03-13T07:39:09;3.60;;;2.20;;
3217;SDS011;1621;49.702;8.618;2023-03-13T07:41:35;4.03;;;2.20;;
3217;SDS011;1621;49.702;8.618;2023-03-13T07:44:01;4.60;;;2.43;;
3217;SDS011;1621;49.702;8.618;2023-03-13T07:46:28;5.67;;;2.73;;
3217;SDS011;1621;49.702;8.618;2023-03-13T07:48:54;5.83;;;2.43;;
3217;SDS011;1621;49.702;8.618;2023-03-13T07:51:22;3.70;;;2.50;;
3217;SDS011;1621;49.702;8.618;2023-03-13T07:53:49;4.03;;;2.60;;
3217;SDS011;1621;49.702;8.618;2023-03-13T07:56:16;3.83;;;2.10;;
3217;SDS011;1621;49.702;8.618;2023-03-13T07:58:42;4.37;;;2.20;;
3217;SDS011;1621;49.702;8.618;2023-03-13T08:01:09;4.40;;;2.20;;
3217;SDS011;1621;49.702;8.618;2023-03-13T08:03:35;6.67;;;2.60;;
3217;SDS011;1621;49.702;8.618;2023-03-13T08:06:02;5.33;;;2.40;;
3217;SDS011;1621;49.702;8.618;2023-03-13T08:08:30;4.20;;;2.13;;
3217;SDS011;1621;49.702;8.618;2023-03-13T08:10:59;6.03;;;2.83;;
3217;SDS011;1621;49.702;8.618;2023-03-13T08:13:26;5.90;;;2.80;;
3217;SDS011;1621;49.702;8.618;2023-03-13T08:16:00;4.17;;;2.17;;
3217;SDS011;1621;49.702;8.618;2023-03-13T08:18:26;4.77;;;2.60;;
3217;SDS011;1621;49.702;8.618;2023-03-13T08:20:52;5.97;;;2.60;;
3217;SDS011;1621;49.702;8.618;2023-03-13T08:23:19;5.43;;;2.90;;
3217;SDS011;1621;49.702;8.618;2023-03-13T08:25:46;7.20;;;2.80;;
3217;SDS011;1621;49.702;8.618;2023-03-13T08:28:12;5.23;;;2.73;;
3217;SDS011;1621;49.702;8.618;2023-03-13T08:30:39;5.97;;;2.80;;
3217;SDS011;1621;49.702;8.618;2023-03-13T08:33:05;7.13;;;3.27;;
3217;SDS011;1621;49.702;8.618;2023-03-13T08:35:31;6.00;;;3.33;;
3217;SDS011;1621;49.702;8.618;2023-03-13T08:37:57;4.87;;;3.03;;
3217;SDS011;1621;49.702;8.618;2023-03-13T08:40:24;4.10;;;2.70;;
3217;SDS011;1621;49.702;8.618;2023-03-13T08:42:51;5.00;;;2.83;;
3217;SDS011;1621;49.702;8.618;2023-03-13T08:45:18;7.17;;;4.10;;
3217;SDS011;1621;49.702;8.618;2023-03-13T08:47:45;5.07;;;3.10;;
3217;SDS011;1621;49.702;8.618;2023-03-13T08:50:11;5.90;;;3.43;;
3217;SDS011;1621;49.702;8.618;2023-03-13T08:52:37;5.00;;;3.40;;
3217;SDS011;1621;49.702;8.618;2023-03-13T08:55:04;5.27;;;3.43;;
3217;SDS011;1621;49.702;8.618;2023-03-13T08:57:30;4.63;;;3.40;;
3217;SDS011;1621;49.702;8.618;2023-03-13T08:59:58;5.50;;;4.00;;
3217;SDS011;1621;49.702;8.618;2023-03-13T09:02:24;6.00;;;3.70;;
3217;SDS011;1621;49.702;8.618;2023-03-13T09:04:50;5.80;;;3.17;;
3217;SDS011;1621;49.702;8.618;2023-03-13T09:07:16;6.93;;;3.80;;
3217;SDS011;1621;49.702;8.618;2023-03-13T09:09:43;9.00;;;4.27;;
3217;SDS011;1621;49.702;8.618;2023-03-13T09:12:09;6.70;;;3.80;;
3217;SDS011;1621;49.702;8.618;2023-03-13T09:14:36;7.60;;;4.40;;
3217;SDS011;1621;49.702;8.618;2023-03-13T09:17:03;5.60;;;4.10;;
3217;SDS011;1621;49.702;8.618;2023-03-13T09:19:30;7.17;;;3.93;;
3217;SDS011;1621;49.702;8.618;2023-03-13T09:21:56;5.70;;;3.50;;
3217;SDS011;1621;49.702;8.618;2023-03-13T09:24:22;5.80;;;3.93;;
3217;SDS011;1621;49.702;8.618;2023-03-13T09:26:49;9.00;;;3.93;;
3217;SDS011;1621;49.702;8.618;2023-03-13T09:29:15;5.47;;;3.90;;
3217;SDS011;1621;49.702;8.618;2023-03-13T09:31:41;4.00;;;3.10;;
3217;SDS011;1621;49.702;8.618;2023-03-13T09:34:09;6.63;;;3.03;;
3217;SDS011;1621;49.702;8.618;2023-03-13T09:36:35;6.13;;;3.80;;
3217;SDS011;1621;49.702;8.618;2023-03-13T09:39:01;4.20;;;3.10;;
3217;SDS011;1621;49.702;8.618;2023-03-13T09:41:30;6.33;;;3.50;;
3217;SDS011;1621;49.702;8.618;2023-03-13T09:43:59;4.73;;;3.57;;
3217;SDS011;1621;49.702;8.618;2023-03-13T09:46:28;5.10;;;2.80;;
3217;SDS011;1621;49.702;8.618;2023-03-13T09:48:57;5.53;;;2.77;;
3217;SDS011;1621;49.702;8.618;2023-03-13T09:51:26;4.87;;;3.33;;
3217;SDS011;1621;49.702;8.618;2023-03-13T09:53:54;4.67;;;2.60;;
3217;SDS011;1621;49.702;8.618;2023-03-13T09:56:23;4.57;;;3.23;;
3217;SDS011;1621;49.702;8.618;2023-03-13T09:58:50;5.13;;;3.77;;
3217;SDS011;1621;49.702;8.618;2023-03-13T10:01:19;6.00;;;3.43;;
3217;SDS011;1621;49.702;8.618;2023-03-13T10:03:51;5.00;;;3.43;;
3217;SDS011;1621;49.702;8.618;2023-03-13T10:06:19;6.20;;;3.60;;
3217;SDS011;1621;49.702;8.618;2023-03-13T10:08:48;4.60;;;3.50;;
3217;SDS011;1621;49.702;8.618;2023-03-13T10:11:17;4.30;;;3.07;;
3217;SDS011;1621;49.702;8.618;2023-03-13T10:13:48;5.10;;;3.00;;
3217;SDS011;1621;49.702;8.618;2023-03-13T10:16:17;5.57;;;3.63;;
3217;SDS011;1621;49.702;8.618;2023-03-13T10:18:46;4.40;;;3.00;;
3217;SDS011;1621;49.702;8.618;2023-03-13T10:21:15;5.33;;;2.90;;
3217;SDS011;1621;49.702;8.618;2023-03-13T10:23:43;8.10;;;2.73;;
3217;SDS011;1621;49.702;8.618;2023-03-13T10:26:15;4.73;;;2.83;;
3217;SDS011;1621;49.702;8.618;2023-03-13T10:28:41;5.70;;;3.00;;
3217;SDS011;1621;49.702;8.618;2023-03-13T10:31:09;4.87;;;3.20;;
3217;SDS011;1621;49.702;8.618;2023-03-13T10:33:37;6.13;;;3.27;;
3217;SDS011;1621;49.702;8.618;2023-03-13T10:36:05;4.43;;;2.97;;
3217;SDS011;1621;49.702;8.618;2023-03-13T10:38:32;6.47;;;3.60;;
3217;SDS011;1621;49.702;8.618;2023-03-13T10:40:59;10.37;;;4.17;;
3217;SDS011;1621;49.702;8.618;2023-03-13T10:43:27;3.83;;;2.70;;
3217;SDS011;1621;49.702;8.618;2023-03-13T10:45:54;7.00;;;2.97;;
3217;SDS011;1621;49.702;8.618;2023-03-13T10:48:21;5.40;;;2.57;;
3217;SDS011;1621;49.702;8.618;2023-03-13T10:50:48;6.20;;;3.00;;
3217;SDS011;1621;49.702;8.618;2023-03-13T10:53:23;4.53;;;2.70;;
3217;SDS011;1621;49.702;8.618;2023-03-13T10:55:51;3.73;;;2.40;;
3217;SDS011;1621;49.702;8.618;2023-03-13T10:58:18;4.30;;;2.47;;
3217;SDS011;1621;49.702;8.618;2023-03-13T11:00:47;13.03;;;2.90;;
3217;SDS011;1621;49.702;8.618;2023-03-13T11:03:14;4.97;;;2.83;;
3217;SDS011;1621;49.702;8.618;2023-03-13T11:05:42;8.63;;;3.43;;
3217;SDS011;1621;49.702;8.618;2023-03-13T11:08:18;7.00;;;3.63;;
3217;SDS011;1621;49.702;8.618;2023-03-13T11:10:53;5.97;;;3.40;;
3217;SDS011;1621;49.702;8.618;2023-03-13T11:13:30;8.13;;;3.70;;
3217;SDS011;1621;49.702;8.618;2023-03-13T11:16:01;6.80;;;3.50;;
3217;SDS011;1621;49.702;8.618;2023-03-13T11:18:29;5.73;;;3.90;;
3217;SDS011;1621;49.702;8.618;2023-03-13T11:20:57;6.10;;;3.70;;
3217;SDS011;1621;49.702;8.618;2023-03-13T11:23:25;10.33;;;3.90;;
3217;SDS011;1621;49.702;8.618;2023-03-13T11:25:56;8.67;;;4.03;;
3217;SDS011;1621;49.702;8.618;2023-03-13T11:28:27;6.43;;;3.77;;
3217;SDS011;1621;49.702;8.618;2023-03-13T11:31:01;7.20;;;3.50;;
3217;SDS011;1621;49.702;8.618;2023-03-13T11:33:33;4.53;;;2.63;;
3217;SDS011;1621;49.702;8.618;2023-03-13T11:36:01;7.37;;;3.17;;
3217;SDS011;1621;49.702;8.618;2023-03-13T11:38:30;5.33;;;2.90;;
3217;SDS011;1621;49.702;8.618;2023-03-13T11:40:59;5.40;;;2.80;;
3217;SDS011;1621;49.702;8.618;2023-03-13T11:43:33;4.90;;;2.77;;
3217;SDS011;1621;49.702;8.618;2023-03-13T11:46:09;6.00;;;3.20;;
3217;SDS011;1621;49.702;8.618;2023-03-13T11:48:42;7.70;;;3.50;;
3217;SDS011;1621;49.702;8.618;2023-03-13T11:51:14;9.33;;;2.77;;
3217;SDS011;1621;49.702;8.618;2023-03-13T11:53:49;6.33;;;2.83;;
3217;SDS011;1621;49.702;8.618;2023-03-13T11:56:19;4.83;;;2.50;;
3217;SDS011;1621;49.702;8.618;2023-03-13T11:58:49;4.00;;;2.70;;
3217;SDS011;1621;49.702;8.618;2023-03-13T12:01:21;6.00;;;3.30;;
3217;SDS011;1621;49.702;8.618;2023-03-13T12:03:52;5.37;;;2.70;;
3217;SDS011;1621;49.702;8.618;2023-03-13T12:06:22;5.87;;;2.63;;
3217;SDS011;1621;49.702;8.618;2023-03-13T12:08:50;4.43;;;2.93;;
3217;SDS011;1621;49.702;8.618;2023-03-13T12:11:19;8.90;;;2.70;;
3217;SDS011;1621;49.702;8.618;2023-03-13T12:13:47;5.03;;;2.63;;
3217;SDS011;1621;49.702;8.618;2023-03-13T12:16:15;4.67;;;2.63;;
3217;SDS011;1621;49.702;8.618;2023-03-13T12:18:44;4.57;;;2.60;;
3217;SDS011;1621;49.702;8.618;2023-03-13T12:21:12;7.23;;;2.87;;
3217;SDS011;1621;49.702;8.618;2023-03-13T12:23:41;4.47;;;2.73;;
3217;SDS011;1621;49.702;8.618;2023-03-13T12:26:09;4.03;;;2.40;;
3217;SDS011;1621;49.702;8.618;2023-03-13T12:28:38;5.40;;;2.60;;
3217;SDS011;1621;49.702;8.618;2023-03-13T12:31:10;3.90;;;2.67;;
3217;SDS011;1621;49.702;8.618;2023-03-13T12:33:40;7.80;;;3.10;;
3217;SDS011;1621;49.702;8.618;2023-03-13T12:36:10;6.57;;;2.90;;
3217;SDS011;1621;49.702;8.618;2023-03-13T12:38:39;5.43;;;2.70;;
3217;SDS011;1621;49.702;8.618;2023-03-13T12:43:48;4.13;;;2.60;;
3217;SDS011;1621;49.702;8.618;2023-03-13T12:46:23;7.53;;;2.80;;
3217;SDS011;1621;49.702;8.618;2023-03-13T12:48:54;6.20;;;2.70;;
3217;SDS011;1621;49.702;8.618;2023-03-13T12:51:31;4.30;;;3.07;;
3217;SDS011;1621;49.702;8.618;2023-03-13T12:54:08;4.00;;;2.70;;
3217;SDS011;1621;49.702;8.618;2023-03-13T12:56:44;6.10;;;2.70;;
3217;SDS011;1621;49.702;8.618;2023-03-13T12:59:14;6.20;;;2.33;;
3217;SDS011;1621;49.702;8.618;2023-03-13T13:01:41;6.70;;;3.10;;
3217;SDS011;1621;49.702;8.618;2023-03-13T13:04:10;4.50;;;2.40;;
3217;SDS011;1621;49.702;8.618;2023-03-13T13:06:52;7.23;;;2.80;;
3217;SDS011;1621;49.702;8.618;2023-03-13T13:09:21;5.37;;;2.43;;
3217;SDS011;1621;49.702;8.618;2023-03-13T13:11:48;5.43;;;3.17;;
3217;SDS011;1621;49.702;8.618;2023-03-13T13:17:22;4.73;;;2.83;;
3217;SDS011;1621;49.702;8.618;2023-03-13T13:19:51;4.73;;;2.80;;
3217;SDS011;1621;49.702;8.618;2023-03-13T13:25:24;4.27;;;2.80;;
3217;SDS011;1621;49.702;8.618;2023-03-13T13:27:51;10.13;;;3.40;;
3217;SDS011;1621;49.702;8.618;2023-03-13T13:36:24;4.30;;;2.70;;
3217;SDS011;1621;49.702;8.618;2023-03-13T13:38:49;3.97;;;2.33;;
3217;SDS011;1621;49.702;8.618;2023-03-13T13:41:24;4.97;;;2.83;;
3217;SDS011;1621;49.702;8.618;2023-03-13T13:46:33;5.73;;;2.80;;
3217;SDS011;1621;49.702;8.618;2023-03-13T13:49:10;4.30;;;2.77;;
3217;SDS011;1621;49.702;8.618;2023-03-13T13:51:38;3.93;;;2.20;;
3217;SDS011;1621;49.702;8.618;2023-03-13T13:54:12;4.07;;;2.57;;
3217;SDS011;1621;49.702;8.618;2023-03-13T13:56:56;8.20;;;2.70;;
3217;SDS011;1621;49.702;8.618;2023-03-13T13:59:35;3.90;;;2.33;;
3217;SDS011;1621;49.702;8.618;2023-03-13T14:02:10;3.77;;;2.20;;
3217;SDS011;1621;49.702;8.618;2023-03-13T14:04:39;4.00;;;2.30;;
3217;SDS011;1621;49.702;8.618;2023-03-13T14:07:06;3.33;;;2.13;;
3217;SDS011;1621;49.702;8.618;2023-03-13T14:09:39;4.63;;;2.30;;
3217;SDS011;1621;49.702;8.618;2023-03-13T14:15:17;4.17;;;2.37;;
3217;SDS011;1621;49.702;8.618;2023-03-13T14:17:45;3.83;;;2.17;;
3217;SDS011;1621;49.702;8.618;2023-03-13T14:20:31;4.43;;;2.50;;
3217;SDS011;1621;49.702;8.618;2023-03-13T14:22:58;4.60;;;2.23;;
3217;SDS011;1621;49.702;8.618;2023-03-13T14:25:25;5.60;;;2.97;;
3217;SDS011;1621;49.702;8.618;2023-03-13T14:27:52;4.40;;;2.70;;
3217;SDS011;1621;49.702;8.618;2023-03-13T14:30:21;4.40;;;2.07;;
3217;SDS011;1621;49.702;8.618;2023-03-13T14:32:49;3.40;;;2.10;;
3217;SDS011;1621;49.702;8.618;2023-03-13T14:35:17;5.43;;;2.53;;
3217;SDS011;1621;49.702;8.618;2023-03-13T14:37:45;5.63;;;2.00;;
3217;SDS011;1621;49.702;8.618;2023-03-13T14:40:22;3.90;;;2.07;;
3217;SDS011;1621;49.702;8.618;2023-03-13T14:42:50;4.07;;;2.10;;
3217;SDS011;1621;49.702;8.618;2023-03-13T14:45:19;6.10;;;2.30;;
3217;SDS011;1621;49.702;8.618;2023-03-13T14:47:48;4.60;;;2.20;;
3217;SDS011;1621;49.702;8.618;2023-03-13T14:50:14;3.43;;;2.07;;
3217;SDS011;1621;49.702;8.618;2023-03-13T14:52:43;4.23;;;1.90;;
3217;SDS011;1621;49.702;8.618;2023-03-13T14:55:24;3.97;;;2.17;;
3217;SDS011;1621;49.702;8.618;2023-03-13T14:57:54;4.70;;;2.30;;
3217;SDS011;1621;49.702;8.618;2023-03-13T15:00:31;7.20;;;1.97;;
3217;SDS011;1621;49.702;8.618;2023-03-13T15:03:15;5.67;;;1.97;;
3217;SDS011;1621;49.702;8.618;2023-03-13T15:05:46;4.63;;;2.40;;
3217;SDS011;1621;49.702;8.618;2023-03-13T15:08:13;4.17;;;2.03;;
3217;SDS011;1621;49.702;8.618;2023-03-13T15:10:39;4.13;;;2.00;;
3217;SDS011;1621;49.702;8.618;2023-03-13T15:13:13;4.03;;;2.00;;
3217;SDS011;1621;49.702;8.618;2023-03-13T15:15:39;3.93;;;1.90;;
3217;SDS011;1621;49.702;8.618;2023-03-13T15:18:08;5.57;;;2.00;;
3217;SDS011;1621;49.702;8.618;2023-03-13T15:20:39;3.73;;;2.10;;
3217;SDS011;1621;49.702;8.618;2023-03-13T15:23:07;5.00;;;2.13;;
3217;SDS011;1621;49.702;8.618;2023-03-13T15:25:34;5.70;;;2.10;;
3217;SDS011;1621;49.702;8.618;2023-03-13T15:28:01;3.60;;;2.10;;
3217;SDS011;1621;49.702;8.618;2023-03-13T15:30:27;6.97;;;1.80;;
3217;SDS011;1621;49.702;8.618;2023-03-13T15:32:53;3.83;;;2.03;;
3217;SDS011;1621;49.702;8.618;2023-03-13T15:35:23;3.83;;;2.17;;
3217;SDS011;1621;49.702;8.618;2023-03-13T15:37:52;4.53;;;2.37;;